Time;durP1;ratioP1;P1;durP2;ratioP2;P2;SDS_P1;SDS_P2;PMS_P1;PMS_P2;Temp;Humidity;BMP_temperature;BMP_pressure;BME280_temperature;BME280_humidity;BME280_pressure;Samples;Min_cycle;Max_cycle;Signal;HPM_P1;HPM_P2
2022/06/02 00:00:29;;;;;;;11.90;3.80;;;;;;;;;;6187308;23;20005;-82
2022/06/02 00:02:58;;;;;;;9.48;3.70;;;;;;;;;;6186030;23;20001;-83
2022/06/02 00:05:28;;;;;;;9.20;3.97;;;;;;;;;;6184717;23;20413;-84
2022/06/02 00:08:12;;;;;;;9.27;4.38;;;;;;;;;;6186102;23;20428;-84
2022/06/02 00:10:50;;;;;;;9.70;4.10;;;;;;;;;;6184594;23;20099;-85
2022/06/02 00:13:19;;;;;;;10.88;3.85;;;;;;;;;;6185843;23;20001;-83
2022/06/02 00:15:52;;;;;;;9.60;3.72;;;;;;;;;;6186228;23;20080;-84
2022/06/02 00:18:38;;;;;;;9.90;4.22;;;;;;;;;;6186009;23;20393;-86
2022/06/02 00:21:23;;;;;;;10.20;4.20;;;;;;;;;;6184371;23;20313;-82
2022/06/02 00:23:53;;;;;;;9.23;3.55;;;;;;;;;;6185941;23;20079;-85
2022/06/02 00:26:41;;;;;;;11.30;5.07;;;;;;;;;;6185923;23;20455;-84
2022/06/02 00:29:13;;;;;;;8.10;4.40;;;;;;;;;;6186374;23;20001;-84
2022/06/02 00:31:45;;;;;;;9.27;3.60;;;;;;;;;;6185892;23;20360;-82
2022/06/02 00:34:21;;;;;;;9.05;3.63;;;;;;;;;;6185535;23;20001;-82
2022/06/02 00:37:00;;;;;;;8.85;3.47;;;;;;;;;;6186397;23;20417;-83
2022/06/02 00:39:27;;;;;;;10.88;4.00;;;;;;;;;;6184541;23;20032;-82
2022/06/02 00:41:59;;;;;;;84.72;67.05;;;;;;;;;;6187344;23;20059;-81
2022/06/02 00:44:25;;;;;;;24.77;16.30;;;;;;;;;;6189737;23;20072;-84
2022/06/02 00:47:18;;;;;;;12.38;4.70;;;;;;;;;;6185938;23;20001;-85
2022/06/02 00:49:48;;;;;;;9.95;3.55;;;;;;;;;;6181636;23;20116;-84
2022/06/02 00:52:14;;;;;;;8.70;3.60;;;;;;;;;;6185911;23;20407;-85
2022/06/02 00:57:35;;;;;;;8.45;3.70;;;;;;;;;;6185787;23;20607;-81
2022/06/02 01:00:20;;;;;;;6.80;3.65;;;;;;;;;;6185595;23;20005;-85
2022/06/02 01:03:05;;;;;;;9.18;3.63;;;;;;;;;;6185498;23;20103;-84
2022/06/02 01:05:31;;;;;;;;;;;;;;;;;;6184584;23;20001;-84
2022/06/02 01:08:12;;;;;;;9.20;3.80;;;;;;;;;;6186220;23;19900;-81
2022/06/02 01:11:02;;;;;;;9.98;3.42;;;;;;;;;;6185523;23;20336;-82
2022/06/02 01:13:34;;;;;;;7.60;3.35;;;;;;;;;;6174032;23;20056;-82
2022/06/02 01:16:19;;;;;;;9.05;3.22;;;;;;;;;;6185647;23;20027;-82
2022/06/02 01:18:56;;;;;;;10.65;3.92;;;;;;;;;;6183891;23;20460;-85
2022/06/02 01:21:29;;;;;;;9.82;4.18;;;;;;;;;;6185705;23;20005;-84
2022/06/02 01:23:58;;;;;;;9.10;3.73;;;;;;;;;;6185799;23;20024;-81
2022/06/02 01:26:24;;;;;;;9.20;3.97;;;;;;;;;;6159240;23;20376;-85
2022/06/02 01:28:50;;;;;;;9.25;3.72;;;;;;;;;;6183724;23;20009;-85
2022/06/02 01:31:16;;;;;;;9.00;3.78;;;;;;;;;;6185639;23;20151;-82
2022/06/02 01:34:01;;;;;;;7.60;3.30;;;;;;;;;;6185280;23;20005;-83
2022/06/02 01:36:45;;;;;;;8.57;3.70;;;;;;;;;;6185269;23;20424;-82
2022/06/02 01:39:11;;;;;;;;;;;;;;;;;;6185650;23;20005;-83
2022/06/02 01:42:04;;;;;;;10.85;3.75;;;;;;;;;;6185542;23;20212;-82
2022/06/02 01:44:41;;;;;;;8.75;3.72;;;;;;;;;;6151202;23;20005;-85
2022/06/02 01:47:14;;;;;;;8.75;3.58;;;;;;;;;;6185345;23;20059;-85
2022/06/02 01:49:59;;;;;;;6.43;3.20;;;;;;;;;;6183541;23;20017;-83
2022/06/02 01:52:34;;;;;;;8.27;3.83;;;;;;;;;;6161750;23;20092;-81
2022/06/02 01:55:06;;;;;;;9.10;3.72;;;;;;;;;;6129594;23;20005;-81
2022/06/02 01:57:51;;;;;;;8.68;3.78;;;;;;;;;;6155936;23;20001;-84
2022/06/02 02:00:22;;;;;;;9.15;3.85;;;;;;;;;;6155842;23;20078;-85
2022/06/02 02:02:48;;;;;;;9.48;3.58;;;;;;;;;;6155660;23;20002;-84
2022/06/02 02:05:28;;;;;;;10.27;3.47;;;;;;;;;;6153888;23;20008;-82
2022/06/02 02:08:12;;;;;;;7.60;3.50;;;;;;;;;;6155077;23;20076;-81
2022/06/02 02:10:38;;;;;;;;;;;;;;;;;;6155471;23;20013;-85
2022/06/02 02:13:07;;;;;;;6.50;4.18;;;;;;;;;;6155282;23;19980;-85
2022/06/02 02:15:43;;;;;;;10.45;4.25;;;;;;;;;;6155023;23;20492;-82
2022/06/02 02:18:28;;;;;;;7.00;4.57;;;;;;;;;;6155888;23;20001;-85
2022/06/02 02:20:54;;;;;;;;;;;;;;;;;;6155610;23;20001;-82
2022/06/02 02:23:28;;;;;;;11.88;4.57;;;;;;;;;;6154921;23;19904;-82
2022/06/02 02:26:07;;;;;;;6.18;3.40;;;;;;;;;;6154985;23;20041;-83
2022/06/02 02:28:41;;;;;;;7.80;4.03;;;;;;;;;;6155009;23;20012;-85
2022/06/02 02:31:09;;;;;;;5.87;3.60;;;;;;;;;;6155127;23;20438;-84
2022/06/02 02:33:35;;;;;;;7.70;3.20;;;;;;;;;;6153565;23;20001;-85
2022/06/02 02:36:11;;;;;;;8.13;3.58;;;;;;;;;;6154997;23;20037;-83
2022/06/02 02:38:58;;;;;;;9.35;3.60;;;;;;;;;;6153231;23;20010;-84
2022/06/02 02:41:44;;;;;;;11.05;4.32;;;;;;;;;;6154686;23;20441;-85
2022/06/02 02:44:13;;;;;;;7.85;3.45;;;;;;;;;;6154563;23;20060;-84
2022/06/02 02:46:45;;;;;;;7.20;3.80;;;;;;;;;;6153597;23;20793;-82
2022/06/02 02:49:11;;;;;;;6.47;3.58;;;;;;;;;;6153129;23;20025;-85
2022/06/02 02:52:04;;;;;;;7.53;3.53;;;;;;;;;;6169947;23;20499;-84
2022/06/02 02:54:49;;;;;;;7.22;4.22;;;;;;;;;;6182007;23;20035;-86
2022/06/02 02:57:33;;;;;;;8.60;4.45;;;;;;;;;;6184852;23;20024;-84
2022/06/02 03:00:09;;;;;;;9.40;4.63;;;;;;;;;;6184800;23;20076;-82
2022/06/02 03:02:43;;;;;;;10.40;3.95;;;;;;;;;;6184701;23;20376;-85
2022/06/02 03:05:09;;;;;;;;;;;;;;;;;;6185022;23;20031;-81
2022/06/02 03:07:35;;;;;;;10.50;4.68;;;;;;;;;;6183319;23;19904;-82
2022/06/02 03:10:05;;;;;;;7.43;4.50;;;;;;;;;;6185277;23;20014;-82
2022/06/02 03:12:48;;;;;;;17.13;12.30;;;;;;;;;;6185638;23;20005;-84
2022/06/02 03:15:15;;;;;;;9.03;3.70;;;;;;;;;;6184736;23;20426;-84
2022/06/02 03:17:47;;;;;;;9.93;5.40;;;;;;;;;;6184583;23;20347;-80
2022/06/02 03:20:19;;;;;;;10.27;4.45;;;;;;;;;;6184921;23;20005;-84
2022/06/02 03:22:48;;;;;;;17.42;5.78;;;;;;;;;;6186142;23;20001;-84
2022/06/02 03:25:17;;;;;;;10.18;6.10;;;;;;;;;;6183118;23;20069;-83
2022/06/02 03:28:02;;;;;;;13.85;8.32;;;;;;;;;;6184334;23;20052;-84
2022/06/02 03:30:34;;;;;;;40.70;30.35;;;;;;;;;;6183492;23;20395;-86
2022/06/02 03:33:10;;;;;;;16.42;13.43;;;;;;;;;;6184349;23;20005;-82
2022/06/02 03:35:43;;;;;;;7.95;4.18;;;;;;;;;;6184676;23;20040;-83
2022/06/02 03:38:12;;;;;;;7.75;4.25;;;;;;;;;;6184405;23;20444;-83
2022/06/02 03:40:57;;;;;;;12.52;8.57;;;;;;;;;;6182871;23;19993;-83
2022/06/02 03:43:29;;;;;;;53.90;38.05;;;;;;;;;;6185073;23;19994;-84
2022/06/02 03:46:07;;;;;;;12.48;8.25;;;;;;;;;;6157955;23;20451;-80
2022/06/02 03:48:36;;;;;;;16.67;12.15;;;;;;;;;;6184529;23;20032;-81
2022/06/02 03:51:21;;;;;;;11.02;6.07;;;;;;;;;;6184503;23;20092;-86
2022/06/02 03:54:05;;;;;;;8.50;4.40;;;;;;;;;;6184474;23;20302;-85
2022/06/02 03:56:34;;;;;;;;;;;;;;;;;;6185169;23;20332;-84
2022/06/02 03:59:09;;;;;;;5.50;3.13;;;;;;;;;;6182736;23;19904;-84
2022/06/02 04:01:56;;;;;;;9.02;5.18;;;;;;;;;;6183219;23;20031;-84
2022/06/02 04:04:25;;;;;;;7.75;3.75;;;;;;;;;;6184382;23;20068;-84
2022/06/02 04:07:07;;;;;;;12.20;4.03;;;;;;;;;;6184820;23;20032;-84
2022/06/02 04:09:59;;;;;;;10.50;3.97;;;;;;;;;;6186165;23;20013;-86
2022/06/02 04:15:47;;;;;;;13.02;4.63;;;;;;;;;;6185771;23;20057;-84
2022/06/02 04:18:32;;;;;;;8.73;4.28;;;;;;;;;;6185152;23;20473;-83
2022/06/02 04:21:17;;;;;;;9.55;4.95;;;;;;;;;;6186035;23;20053;-84
2022/06/02 04:23:44;;;;;;;6.38;4.25;;;;;;;;;;6186928;23;20001;-85
2022/06/02 04:26:16;;;;;;;10.85;4.70;;;;;;;;;;6185255;23;20013;-86
2022/06/02 04:29:01;;;;;;;11.13;4.65;;;;;;;;;;6185600;23;20016;-85
2022/06/02 04:31:48;;;;;;;10.70;5.13;;;;;;;;;;6186168;23;20056;-85
2022/06/02 04:34:17;;;;;;;8.75;4.07;;;;;;;;;;6186820;23;20004;-85
2022/06/02 04:37:02;;;;;;;9.23;4.60;;;;;;;;;;6185800;23;20005;-85
2022/06/02 04:39:33;;;;;;;6.32;4.30;;;;;;;;;;6186286;23;20012;-86
2022/06/02 04:42:14;;;;;;;7.18;4.90;;;;;;;;;;6185965;23;20001;-86
2022/06/02 04:44:48;;;;;;;8.30;4.20;;;;;;;;;;6185697;23;20024;-85
2022/06/02 04:47:35;;;;;;;9.15;4.10;;;;;;;;;;6185747;23;20337;-85
2022/06/02 04:50:04;;;;;;;9.13;4.53;;;;;;;;;;6178979;23;20100;-85
2022/06/02 04:52:43;;;;;;;10.10;4.28;;;;;;;;;;6179214;23;20024;-86
2022/06/02 04:55:28;;;;;;;9.20;4.90;;;;;;;;;;6184770;23;20064;-85
2022/06/02 04:58:12;;;;;;;7.95;4.10;;;;;;;;;;6185445;23;20008;-85
2022/06/02 05:00:46;;;;;;;5.63;3.90;;;;;;;;;;6186119;23;20001;-86
2022/06/02 05:03:31;;;;;;;10.05;3.85;;;;;;;;;;6184005;23;20001;-85
2022/06/02 05:06:15;;;;;;;10.73;3.80;;;;;;;;;;6183783;23;20008;-84
2022/06/02 05:08:47;;;;;;;7.97;3.58;;;;;;;;;;6184791;23;20009;-85
2022/06/02 05:11:41;;;;;;;12.05;5.53;;;;;;;;;;6184459;23;20033;-84
2022/06/02 05:14:07;;;;;;;8.70;4.63;;;;;;;;;;6184225;23;20005;-84
2022/06/02 05:16:51;;;;;;;6.68;3.80;;;;;;;;;;6184328;23;20005;-83
2022/06/02 05:19:20;;;;;;;;;;;;;;;;;;6185970;23;20068;-84
2022/06/02 05:21:52;;;;;;;7.95;4.28;;;;;;;;;;6184397;23;19982;-84
2022/06/02 05:24:37;;;;;;;11.38;4.75;;;;;;;;;;6182167;23;20003;-78
2022/06/02 05:27:21;;;;;;;9.05;4.28;;;;;;;;;;6184380;23;20024;-84
2022/06/02 05:30:07;;;;;;;7.88;3.60;;;;;;;;;;6184915;23;20410;-85
2022/06/02 05:32:46;;;;;;;6.32;3.25;;;;;;;;;;6183068;23;20001;-84
2022/06/02 05:35:21;;;;;;;5.70;2.75;;;;;;;;;;6182841;23;20008;-84
2022/06/02 05:38:05;;;;;;;6.35;3.40;;;;;;;;;;6185232;23;20005;-85
2022/06/02 05:40:37;;;;;;;7.57;4.03;;;;;;;;;;6182745;23;20005;-85
2022/06/02 05:43:17;;;;;;;9.10;3.28;;;;;;;;;;6182905;23;20009;-84
2022/06/02 05:45:59;;;;;;;7.97;3.75;;;;;;;;;;6183006;23;20005;-82
2022/06/02 05:48:46;;;;;;;18.67;14.93;;;;;;;;;;6183445;23;20060;-83
2022/06/02 05:51:38;;;;;;;9.35;4.40;;;;;;;;;;6174740;23;20470;-82
2022/06/02 05:54:05;;;;;;;8.38;3.92;;;;;;;;;;6185296;23;20004;-82
2022/06/02 05:56:40;;;;;;;9.90;4.85;;;;;;;;;;6185118;23;20012;-81
2022/06/02 05:59:22;;;;;;;7.47;3.55;;;;;;;;;;6183864;23;20001;-83
2022/06/02 06:01:54;;;;;;;5.88;3.17;;;;;;;;;;6184816;23;20072;-84
2022/06/02 06:04:39;;;;;;;10.00;3.60;;;;;;;;;;6184880;23;20028;-84
2022/06/02 06:07:29;;;;;;;6.88;3.30;;;;;;;;;;6184203;23;20001;-83
2022/06/02 06:10:13;;;;;;;9.57;3.42;;;;;;;;;;6172015;23;20467;-82
2022/06/02 06:12:39;;;;;;;7.72;3.78;;;;;;;;;;6186947;23;20017;-85
2022/06/02 06:15:24;;;;;;;6.30;4.00;;;;;;;;;;6183451;23;20005;-81
2022/06/02 06:18:13;;;;;;;7.50;4.35;;;;;;;;;;6184688;23;20422;-86
2022/06/02 06:20:57;;;;;;;5.43;3.42;;;;;;;;;;6183946;23;20016;-83
2022/06/02 06:23:23;;;;;;;8.90;3.63;;;;;;;;;;6183253;23;20001;-81
2022/06/02 06:25:53;;;;;;;5.63;3.95;;;;;;;;;;6181720;23;20016;-83
2022/06/02 06:28:20;;;;;;;5.95;3.63;;;;;;;;;;6184734;23;20429;-83
2022/06/02 06:30:56;;;;;;;8.18;3.78;;;;;;;;;;6181923;23;20024;-82
2022/06/02 06:33:41;;;;;;;6.97;3.10;;;;;;;;;;6184114;23;20005;-83
2022/06/02 06:36:26;;;;;;;8.80;4.60;;;;;;;;;;6184367;23;20008;-80
2022/06/02 06:39:10;;;;;;;10.95;5.30;;;;;;;;;;6183532;23;20005;-82
2022/06/02 06:41:55;;;;;;;9.57;5.55;;;;;;;;;;6183689;23;20005;-83
2022/06/02 06:44:47;;;;;;;10.23;6.82;;;;;;;;;;6184597;23;20429;-84
2022/06/02 06:47:14;;;;;;;55.00;49.55;;;;;;;;;;6179238;23;20009;-83
2022/06/02 06:49:43;;;;;;;7.65;4.80;;;;;;;;;;6184183;23;20013;-83
2022/06/02 06:52:27;;;;;;;8.32;3.88;;;;;;;;;;6181069;23;20298;-86
2022/06/02 06:55:01;;;;;;;12.18;4.63;;;;;;;;;;6183437;23;20005;-82
2022/06/02 06:57:31;;;;;;;10.10;4.18;;;;;;;;;;6184441;23;20012;-81
2022/06/02 07:00:03;;;;;;;6.50;3.38;;;;;;;;;;6183298;23;20109;-83
2022/06/02 07:02:33;;;;;;;7.38;3.50;;;;;;;;;;6182668;23;20013;-83
2022/06/02 07:05:06;;;;;;;6.93;3.17;;;;;;;;;;6184470;23;20005;-83
2022/06/02 07:07:53;;;;;;;8.23;3.35;;;;;;;;;;6181201;23;20321;-85
2022/06/02 07:10:30;;;;;;;6.90;4.35;;;;;;;;;;6182827;23;20048;-83
2022/06/02 07:12:58;;;;;;;7.05;3.40;;;;;;;;;;6185337;23;20009;-84
2022/06/02 07:15:47;;;;;;;5.63;3.13;;;;;;;;;;6157971;23;20009;-84
2022/06/02 07:18:22;;;;;;;5.70;3.45;;;;;;;;;;6184186;23;20012;-82
2022/06/02 07:21:07;;;;;;;6.95;3.40;;;;;;;;;;6183937;23;20001;-84
2022/06/02 07:24:03;;;;;;;6.20;3.10;;;;;;;;;;6184359;23;20012;-82
2022/06/02 07:26:50;;;;;;;6.38;3.58;;;;;;;;;;6165880;23;20009;-83
2022/06/02 07:29:35;;;;;;;5.28;3.20;;;;;;;;;;6184375;23;20013;-82
2022/06/02 07:32:11;;;;;;;5.38;3.03;;;;;;;;;;6183699;23;20432;-82
2022/06/02 07:34:43;;;;;;;8.13;4.97;;;;;;;;;;6183656;23;20440;-81
2022/06/02 07:37:31;;;;;;;4.80;3.15;;;;;;;;;;6184097;23;20045;-84
2022/06/02 07:39:57;;;;;;;10.68;3.58;;;;;;;;;;6183287;23;20437;-83
2022/06/02 07:42:25;;;;;;;4.32;3.53;;;;;;;;;;6184657;23;20384;-83
2022/06/02 07:45:11;;;;;;;6.85;2.95;;;;;;;;;;6184084;23;20055;-84
2022/06/02 07:47:58;;;;;;;7.07;3.45;;;;;;;;;;6185418;23;20072;-84
2022/06/02 07:50:27;;;;;;;5.40;3.25;;;;;;;;;;6183854;23;20012;-84
2022/06/02 07:53:12;;;;;;;7.97;3.70;;;;;;;;;;6183974;23;20033;-81
2022/06/02 07:55:57;;;;;;;7.63;3.83;;;;;;;;;;6186297;23;20001;-81
2022/06/02 07:58:42;;;;;;;5.35;3.53;;;;;;;;;;6185886;23;20069;-82
2022/06/02 08:01:31;;;;;;;5.13;2.83;;;;;;;;;;6185638;23;20480;-81
2022/06/02 08:04:03;;;;;;;4.53;3.17;;;;;;;;;;6185585;23;20076;-81
2022/06/02 08:06:39;;;;;;;8.77;3.65;;;;;;;;;;6185367;23;20480;-80
2022/06/02 08:09:24;;;;;;;6.70;4.15;;;;;;;;;;6184461;23;20015;-81
2022/06/02 08:12:09;;;;;;;8.88;3.60;;;;;;;;;;6184939;23;20016;-81
2022/06/02 08:14:54;;;;;;;5.88;3.58;;;;;;;;;;6183633;23;20008;-82
2022/06/02 08:17:23;;;;;;;6.97;3.70;;;;;;;;;;6184558;23;20009;-82
2022/06/02 08:20:08;;;;;;;5.47;3.63;;;;;;;;;;6185150;23;20076;-80
2022/06/02 08:22:34;;;;;;;6.57;3.33;;;;;;;;;;6184878;23;20009;-84
2022/06/02 08:25:10;;;;;;;5.80;3.30;;;;;;;;;;6185396;23;20007;-83
2022/06/02 08:27:42;;;;;;;7.18;3.13;;;;;;;;;;6185013;23;20413;-82
2022/06/02 08:30:27;;;;;;;11.20;4.00;;;;;;;;;;6184488;23;20009;-81
2022/06/02 08:32:53;;;;;;;10.10;7.03;;;;;;;;;;6185348;23;20072;-82
2022/06/02 08:35:38;;;;;;;5.18;3.50;;;;;;;;;;6184865;23;20005;-81
2022/06/02 08:38:22;;;;;;;5.70;3.10;;;;;;;;;;6185192;23;20001;-83
2022/06/02 08:44:10;;;;;;;6.47;3.45;;;;;;;;;;6181709;23;20076;-82
2022/06/02 08:46:45;;;;;;;5.70;2.53;;;;;;;;;;6184518;23;20062;-81
2022/06/02 08:49:15;;;;;;;6.90;3.30;;;;;;;;;;6182773;23;20449;-81
2022/06/02 08:51:41;;;;;;;4.63;3.17;;;;;;;;;;6169161;23;20141;-80
2022/06/02 08:54:16;;;;;;;4.65;2.53;;;;;;;;;;6154502;23;20002;-82
2022/06/02 08:56:45;;;;;;;7.88;2.97;;;;;;;;;;6154457;23;20329;-81
2022/06/02 08:59:29;;;;;;;5.57;3.10;;;;;;;;;;6154442;23;20002;-81
2022/06/02 09:02:14;;;;;;;6.30;2.80;;;;;;;;;;6155160;23;20006;-83
2022/06/02 09:04:59;;;;;;;6.18;3.05;;;;;;;;;;6155193;23;20005;-81
2022/06/02 09:07:34;;;;;;;8.32;3.28;;;;;;;;;;6154985;23;20001;-83
2022/06/02 09:10:18;;;;;;;5.15;2.58;;;;;;;;;;6154787;23;20049;-81
2022/06/02 09:12:57;;;;;;;6.88;2.35;;;;;;;;;;6155429;23;20085;-81
2022/06/02 09:15:41;;;;;;;7.03;3.10;;;;;;;;;;6155197;23;20123;-82
2022/06/02 09:18:10;;;;;;;5.85;2.83;;;;;;;;;;6155504;23;20333;-80
2022/06/02 09:20:42;;;;;;;6.82;3.70;;;;;;;;;;6152812;23;20333;-83
2022/06/02 09:23:18;;;;;;;8.02;3.22;;;;;;;;;;6155081;23;20005;-82
2022/06/02 09:25:47;;;;;;;5.72;3.15;;;;;;;;;;6152852;23;20006;-82
2022/06/02 09:28:32;;;;;;;7.25;3.17;;;;;;;;;;6151016;23;20065;-83
2022/06/02 09:31:01;;;;;;;6.40;2.67;;;;;;;;;;6155401;23;20018;-82
2022/06/02 09:33:34;;;;;;;7.88;4.40;;;;;;;;;;6155443;23;20006;-84
2022/06/02 09:36:08;;;;;;;5.85;3.20;;;;;;;;;;6154971;23;20012;-82
2022/06/02 09:38:35;;;;;;;5.72;2.95;;;;;;;;;;6153206;23;20005;-82
2022/06/02 09:41:19;;;;;;;6.28;3.78;;;;;;;;;;6154975;23;20358;-83
2022/06/02 09:44:04;;;;;;;4.38;2.83;;;;;;;;;;6153983;23;20429;-85
2022/06/02 09:46:49;;;;;;;7.93;3.25;;;;;;;;;;6153002;23;20037;-84
2022/06/02 09:49:25;;;;;;;6.57;2.90;;;;;;;;;;6153124;23;20041;-82
2022/06/02 09:51:55;;;;;;;4.88;2.83;;;;;;;;;;6168677;23;20484;-84
2022/06/02 09:54:41;;;;;;;5.55;3.00;;;;;;;;;;6184269;23;20081;-83
2022/06/02 10:00:30;;;;;;;7.32;3.33;;;;;;;;;;6171846;23;20080;-83
2022/06/02 10:03:02;;;;;;;4.90;2.92;;;;;;;;;;6185030;23;20008;-83
2022/06/02 10:06:01;;;;;;;4.85;2.88;;;;;;;;;;6181430;23;20015;-83
2022/06/02 10:08:46;;;;;;;6.32;2.92;;;;;;;;;;6134768;23;20036;-83
2022/06/02 10:11:18;;;;;;;7.40;2.95;;;;;;;;;;6182045;23;20075;-82
2022/06/02 10:14:03;;;;;;;4.85;2.65;;;;;;;;;;6186117;23;20009;-83
2022/06/02 10:16:47;;;;;;;3.97;2.55;;;;;;;;;;6184228;23;20036;-82
2022/06/02 10:19:32;;;;;;;6.35;2.50;;;;;;;;;;6184097;23;20076;-81
2022/06/02 10:22:20;;;;;;;7.32;3.20;;;;;;;;;;6184543;23;20008;-83
2022/06/02 10:25:04;;;;;;;5.55;2.97;;;;;;;;;;6183767;23;20005;-82
2022/06/02 10:27:49;;;;;;;5.78;2.92;;;;;;;;;;6182811;23;20097;-83
2022/06/02 10:30:33;;;;;;;5.13;2.63;;;;;;;;;;6184651;23;20013;-82
2022/06/02 10:33:00;;;;;;;14.13;3.72;;;;;;;;;;6185335;23;20562;-81
2022/06/02 10:35:44;;;;;;;5.35;2.47;;;;;;;;;;6183857;23;20001;-81
2022/06/02 10:38:29;;;;;;;4.30;2.25;;;;;;;;;;6182403;23;20009;-82
2022/06/02 10:40:55;;;;;;;4.55;2.67;;;;;;;;;;6183114;23;20009;-81
2022/06/02 10:43:44;;;;;;;10.00;2.95;;;;;;;;;;6182748;23;20508;-81
2022/06/02 10:46:28;;;;;;;5.65;2.55;;;;;;;;;;6182472;23;20017;-82
2022/06/02 10:49:08;;;;;;;5.80;2.47;;;;;;;;;;6185052;23;20100;-84
2022/06/02 10:51:35;;;;;;;4.35;2.40;;;;;;;;;;6168385;23;20028;-80
2022/06/02 10:54:01;;;;;;;4.90;1.92;;;;;;;;;;6154735;23;20053;-81
2022/06/02 10:56:33;;;;;;;7.85;4.35;;;;;;;;;;6153417;23;19997;-82
2022/06/02 10:59:18;;;;;;;6.95;3.40;;;;;;;;;;6154189;23;20016;-82
2022/06/02 11:02:02;;;;;;;7.70;3.38;;;;;;;;;;6154249;23;20005;-78
2022/06/02 11:04:47;;;;;;;7.13;1.88;;;;;;;;;;6154169;23;19998;-81
2022/06/02 11:07:25;;;;;;;7.82;3.08;;;;;;;;;;6153773;23;20012;-82
2022/06/02 11:10:10;;;;;;;4.10;1.80;;;;;;;;;;6153220;23;20029;-80
2022/06/02 11:12:55;;;;;;;5.75;2.50;;;;;;;;;;6154574;23;20009;-85
2022/06/02 11:15:39;;;;;;;6.93;2.35;;;;;;;;;;6154424;23;20076;-79
2022/06/02 11:18:24;;;;;;;5.72;2.58;;;;;;;;;;6153877;23;20008;-78
2022/06/02 11:21:00;;;;;;;9.27;3.97;;;;;;;;;;6152968;23;20009;-81
2022/06/02 11:23:45;;;;;;;7.65;2.20;;;;;;;;;;6154915;23;20069;-84
2022/06/02 11:26:30;;;;;;;6.68;2.03;;;;;;;;;;6151014;23;20014;-80
2022/06/02 11:29:05;;;;;;;7.70;1.98;;;;;;;;;;6154852;23;20024;-79
2022/06/02 11:31:50;;;;;;;5.05;1.75;;;;;;;;;;6155328;23;20013;-82
2022/06/02 11:34:18;;;;;;;12.05;2.05;;;;;;;;;;6155904;23;20037;-81
2022/06/02 11:37:11;;;;;;;10.43;2.20;;;;;;;;;;6155376;23;20017;-79
2022/06/02 11:40:13;;;;;;;5.20;1.77;;;;;;;;;;6132673;23;20485;-81
2022/06/02 11:42:58;;;;;;;6.10;1.77;;;;;;;;;;6070404;23;20007;-80
2022/06/02 11:45:42;;;;;;;8.52;2.45;;;;;;;;;;6151699;23;20005;-80
2022/06/02 11:48:22;;;;;;;5.90;1.65;;;;;;;;;;6154813;23;20005;-82
2022/06/02 11:51:00;;;;;;;6.47;1.80;;;;;;;;;;6155234;23;20029;-80
2022/06/02 11:53:38;;;;;;;5.53;1.75;;;;;;;;;;6186278;23;20446;-82
2022/06/02 11:56:34;;;;;;;6.47;2.30;;;;;;;;;;6185899;23;20036;-77
2022/06/02 11:59:18;;;;;;;8.80;2.40;;;;;;;;;;6166472;23;20079;-75
2022/06/02 12:01:59;;;;;;;6.97;2.63;;;;;;;;;;6184269;23;20001;-78
2022/06/02 12:04:44;;;;;;;25.92;23.17;;;;;;;;;;6185943;23;20075;-80
2022/06/02 12:07:19;;;;;;;8.65;2.50;;;;;;;;;;6185415;23;20009;-78
2022/06/02 12:10:04;;;;;;;7.60;2.80;;;;;;;;;;6185733;23;20686;-80
2022/06/02 12:12:49;;;;;;;8.38;2.30;;;;;;;;;;6185293;23;20060;-81
2022/06/02 12:15:34;;;;;;;9.77;2.97;;;;;;;;;;6185995;23;20429;-82
2022/06/02 12:18:03;;;;;;;19.20;3.30;;;;;;;;;;6186081;23;20009;-79
2022/06/02 12:20:38;;;;;;;10.18;2.50;;;;;;;;;;6184963;23;20008;-79
2022/06/02 12:23:23;;;;;;;9.68;2.67;;;;;;;;;;6185871;23;20008;-79
2022/06/02 12:26:07;;;;;;;12.00;2.88;;;;;;;;;;6184308;23;20005;-83
2022/06/02 12:28:52;;;;;;;9.32;2.08;;;;;;;;;;6185489;23;20028;-79
2022/06/02 12:31:36;;;;;;;10.20;2.15;;;;;;;;;;6185901;23;20013;-77
2022/06/02 12:34:21;;;;;;;8.98;2.35;;;;;;;;;;6185739;23;20013;-82
2022/06/02 12:37:05;;;;;;;6.00;2.30;;;;;;;;;;6185267;23;20005;-82
2022/06/02 12:39:50;;;;;;;8.90;2.47;;;;;;;;;;6184875;23;20001;-79
2022/06/02 12:42:20;;;;;;;10.65;3.00;;;;;;;;;;6185638;23;20005;-81
2022/06/02 12:45:06;;;;;;;7.82;2.20;;;;;;;;;;6184312;23;20009;-79
2022/06/02 12:47:51;;;;;;;7.63;2.30;;;;;;;;;;6185572;23;20066;-76
2022/06/02 12:50:20;;;;;;;12.27;2.40;;;;;;;;;;6184315;23;20041;-78
2022/06/02 12:52:46;;;;;;;6.95;1.88;;;;;;;;;;6184028;23;20016;-84
2022/06/02 12:55:18;;;;;;;6.28;2.08;;;;;;;;;;6183233;23;20016;-80
2022/06/02 12:57:50;;;;;;;7.30;2.30;;;;;;;;;;6182966;23;20025;-77
2022/06/02 13:00:35;;;;;;;9.15;3.17;;;;;;;;;;6183673;23;20012;-78
2022/06/02 13:03:05;;;;;;;9.70;3.55;;;;;;;;;;6183843;23;20416;-81
2022/06/02 13:05:49;;;;;;;6.78;2.10;;;;;;;;;;6184383;23;20005;-78
2022/06/02 13:08:24;;;;;;;7.07;1.80;;;;;;;;;;6184214;23;20005;-81
2022/06/02 13:11:09;;;;;;;12.25;2.10;;;;;;;;;;6184173;23;20009;-79
2022/06/02 13:13:52;;;;;;;7.13;2.17;;;;;;;;;;6184905;23;20048;-82
2022/06/02 13:16:36;;;;;;;6.97;2.10;;;;;;;;;;6184442;23;20329;-78
2022/06/02 13:19:03;;;;;;;8.10;2.08;;;;;;;;;;6183932;23;20005;-80
2022/06/02 13:21:47;;;;;;;6.90;2.47;;;;;;;;;;6184481;23;20056;-81
2022/06/02 13:24:26;;;;;;;6.70;2.50;;;;;;;;;;6184023;23;20005;-80
2022/06/02 13:26:55;;;;;;;7.70;2.30;;;;;;;;;;6183622;23;20008;-82
2022/06/02 13:29:34;;;;;;;7.75;2.50;;;;;;;;;;6183356;23;20040;-80
2022/06/02 13:32:02;;;;;;;8.65;2.90;;;;;;;;;;6183744;23;20005;-81
2022/06/02 13:34:35;;;;;;;8.85;2.95;;;;;;;;;;6183325;23;20031;-82
2022/06/02 13:37:04;;;;;;;6.60;2.70;;;;;;;;;;6183825;23;20017;-79
2022/06/02 13:39:33;;;;;;;8.23;2.00;;;;;;;;;;6183884;23;20059;-79
2022/06/02 13:42:05;;;;;;;9.13;3.25;;;;;;;;;;6183583;23;20455;-75
2022/06/02 13:44:56;;;;;;;7.57;2.28;;;;;;;;;;6183528;23;20005;-81
2022/06/02 13:47:39;;;;;;;6.18;2.92;;;;;;;;;;6182023;23;20008;-81
2022/06/02 13:50:23;;;;;;;10.48;3.47;;;;;;;;;;6156982;23;20436;-81
2022/06/02 13:53:08;;;;;;;7.45;2.58;;;;;;;;;;6130973;23;1267866;-79
2022/06/02 13:58:22;;;;;;;9.07;2.38;;;;;;;;;;6184432;23;20499;-81
2022/06/02 14:01:07;;;;;;;7.93;2.72;;;;;;;;;;6184824;23;20028;-81
2022/06/02 14:03:52;;;;;;;9.52;2.53;;;;;;;;;;6183695;23;20011;-80
2022/06/02 14:06:23;;;;;;;7.35;2.03;;;;;;;;;;6184632;23;20440;-80
2022/06/02 14:09:08;;;;;;;7.07;2.15;;;;;;;;;;6184287;23;20001;-78
2022/06/02 14:11:49;;;;;;;6.43;2.47;;;;;;;;;;6184363;23;20005;-80
2022/06/02 14:14:24;;;;;;;9.73;2.80;;;;;;;;;;6184524;23;20436;-80
2022/06/02 14:17:09;;;;;;;7.03;2.45;;;;;;;;;;6158975;23;20419;-79
2022/06/02 14:19:54;;;;;;;7.95;2.10;;;;;;;;;;6183712;23;20005;-79
2022/06/02 14:22:26;;;;;;;6.40;2.45;;;;;;;;;;6185210;23;20080;-80
2022/06/02 14:25:18;;;;;;;5.80;2.47;;;;;;;;;;6185823;23;20080;-81
2022/06/02 14:27:44;;;;;;;5.10;2.30;;;;;;;;;;6151348;23;20009;-80
2022/06/02 14:30:10;;;;;;;5.63;2.20;;;;;;;;;;6185906;23;20013;-80
2022/06/02 14:32:55;;;;;;;7.15;3.40;;;;;;;;;;6184853;23;20004;-79
2022/06/02 14:35:23;;;;;;;6.55;2.38;;;;;;;;;;6185256;23;20001;-82
2022/06/02 14:37:54;;;;;;;9.13;2.60;;;;;;;;;;6185309;23;20009;-81
2022/06/02 14:40:23;;;;;;;4.95;1.88;;;;;;;;;;6184869;23;20001;-79
2022/06/02 14:43:09;;;;;;;5.90;2.63;;;;;;;;;;6186554;23;20001;-79
2022/06/02 14:45:54;;;;;;;6.65;2.53;;;;;;;;;;6185325;23;20005;-81
2022/06/02 14:48:20;;;;;;;4.63;2.30;;;;;;;;;;6185415;23;20028;-81
2022/06/02 14:51:05;;;;;;;9.23;2.22;;;;;;;;;;6184591;23;20023;-79
2022/06/02 14:53:40;;;;;;;8.18;2.15;;;;;;;;;;6183900;23;20005;-79
2022/06/02 14:56:12;;;;;;;8.95;3.70;;;;;;;;;;6185233;23;20044;-81
2022/06/02 14:58:59;;;;;;;5.93;2.00;;;;;;;;;;6185054;23;20008;-81
2022/06/02 15:01:25;;;;;;;9.60;2.40;;;;;;;;;;6184347;23;20001;-79
2022/06/02 15:04:09;;;;;;;7.88;3.13;;;;;;;;;;6184484;23;20009;-81
2022/06/02 15:06:38;;;;;;;6.38;2.70;;;;;;;;;;6184544;23;20016;-80
2022/06/02 15:09:10;;;;;;;6.30;1.92;;;;;;;;;;6184888;23;20005;-78
2022/06/02 15:11:46;;;;;;;9.02;2.33;;;;;;;;;;6182369;23;20139;-80
2022/06/02 15:14:15;;;;;;;10.57;2.65;;;;;;;;;;6185223;23;20056;-80
2022/06/02 15:17:01;;;;;;;6.38;2.60;;;;;;;;;;6185185;23;20456;-80
2022/06/02 15:19:47;;;;;;;6.45;2.47;;;;;;;;;;6184704;23;19997;-80
2022/06/02 15:22:31;;;;;;;8.05;2.60;;;;;;;;;;6185116;23;20005;-81
2022/06/02 15:25:03;;;;;;;7.25;3.05;;;;;;;;;;6185509;23;20005;-78
2022/06/02 15:27:29;;;;;;;6.15;2.40;;;;;;;;;;6185437;23;20012;-80
2022/06/02 15:29:55;;;;;;;6.45;2.03;;;;;;;;;;6185391;23;20063;-80
2022/06/02 15:32:27;;;;;;;4.93;1.98;;;;;;;;;;6185596;23;20029;-82
2022/06/02 15:35:06;;;;;;;7.60;2.20;;;;;;;;;;6185238;23;20009;-80
2022/06/02 15:37:51;;;;;;;6.30;1.88;;;;;;;;;;6185069;23;20019;-82
2022/06/02 15:40:36;;;;;;;6.25;2.05;;;;;;;;;;6184908;23;20509;-79
2022/06/02 15:43:11;;;;;;;6.65;2.58;;;;;;;;;;6184699;23;20421;-81
2022/06/02 15:45:50;;;;;;;7.05;2.60;;;;;;;;;;6185171;23;20001;-81
2022/06/02 15:48:35;;;;;;;3.80;2.10;;;;;;;;;;6184340;23;20001;-81
2022/06/02 15:51:10;;;;;;;5.30;2.03;;;;;;;;;;6184280;23;20020;-80
2022/06/02 15:53:55;;;;;;;4.40;2.20;;;;;;;;;;6185077;23;20004;-81
2022/06/02 15:56:39;;;;;;;9.07;2.40;;;;;;;;;;6184803;23;20001;-80
2022/06/02 15:59:24;;;;;;;9.20;2.95;;;;;;;;;;6184778;23;20101;-82
2022/06/02 16:02:08;;;;;;;8.75;2.30;;;;;;;;;;6184528;23;20453;-78